createdAt,value
2022-10-18T00:00:25.111Z,14.01
2022-10-18T00:00:56.823Z,14.04
2022-10-18T00:01:28.388Z,14.02
2022-10-18T00:01:59.936Z,14.06
2022-10-18T00:02:31.610Z,14.05
2022-10-18T00:03:03.212Z,14.04
2022-10-18T00:03:35.399Z,14.03
2022-10-18T00:04:07.026Z,14.02
2022-10-18T00:04:38.556Z,14.03
2022-10-18T00:05:10.254Z,14.03
2022-10-18T00:05:41.926Z,14.02
2022-10-18T00:06:13.574Z,14.01
2022-10-18T00:06:45.090Z,14.07
2022-10-18T00:07:16.694Z,14.05
2022-10-18T00:07:48.211Z,14.06
2022-10-18T00:08:20.113Z,14.05
2022-10-18T00:08:51.792Z,14.08
2022-10-18T00:09:23.539Z,14.10
2022-10-18T00:09:55.091Z,14.09
2022-10-18T00:10:26.828Z,14.04
2022-10-18T00:10:58.482Z,14.04
2022-10-18T00:11:30.306Z,14.03
2022-10-18T00:12:01.964Z,14.01
2022-10-18T00:12:35.216Z,14.01
2022-10-18T00:13:06.782Z,14.02
2022-10-18T00:13:38.656Z,14.04
2022-10-18T00:14:10.263Z,14.05
2022-10-18T00:14:41.839Z,14.04
2022-10-18T00:15:13.423Z,14.04
2022-10-18T00:15:53.520Z,14.04
2022-10-18T00:16:25.111Z,14.08
2022-10-18T00:16:56.865Z,14.12
2022-10-18T00:17:29.132Z,14.09
2022-10-18T00:18:01.139Z,14.06
2022-10-18T00:18:32.702Z,14.06
2022-10-18T00:19:04.478Z,14.06
2022-10-18T00:19:36.179Z,14.04
2022-10-18T00:20:08.147Z,14.02
2022-10-18T00:20:39.719Z,14.04
2022-10-18T00:21:13.974Z,13.99
2022-10-18T00:22:17.062Z,13.99
2022-10-18T00:22:48.635Z,13.99
2022-10-18T00:23:20.118Z,13.98
2022-10-18T00:23:52.491Z,13.99
2022-10-18T00:24:24.047Z,13.98
2022-10-18T00:24:55.640Z,13.97
2022-10-18T00:25:27.420Z,13.93
2022-10-18T00:26:00.987Z,13.92
2022-10-18T00:26:32.595Z,13.95
2022-10-18T00:27:04.263Z,13.97
2022-10-18T00:27:35.976Z,13.99
2022-10-18T00:28:07.516Z,13.97
2022-10-18T00:28:39.575Z,14.02
2022-10-18T00:29:14.408Z,13.99
2022-10-18T00:29:46.110Z,13.94
2022-10-18T00:30:17.735Z,13.91
2022-10-18T00:31:25.754Z,13.86
2022-10-18T00:31:57.379Z,13.84
2022-10-18T00:32:29.062Z,13.82
2022-10-18T00:33:01.030Z,13.82
2022-10-18T00:33:32.556Z,13.79
2022-10-18T00:34:08.132Z,13.77
2022-10-18T00:34:40.297Z,13.78
2022-10-18T00:35:11.953Z,13.79
2022-10-18T00:35:43.619Z,13.80
2022-10-18T00:36:15.172Z,13.81
2022-10-18T00:36:46.682Z,13.82
2022-10-18T00:37:18.372Z,13.80
2022-10-18T00:37:49.854Z,13.80
2022-10-18T00:38:21.323Z,13.78
2022-10-18T00:38:53.267Z,13.80
2022-10-18T00:39:24.944Z,13.84
2022-10-18T00:39:56.563Z,13.86
2022-10-18T00:40:28.483Z,13.84
2022-10-18T00:41:00.013Z,13.83
2022-10-18T00:41:32.905Z,13.84
2022-10-18T00:42:04.578Z,13.85
2022-10-18T00:42:37.279Z,13.86
2022-10-18T00:43:13.855Z,13.85
2022-10-18T00:51:45.070Z,13.89
2022-10-18T00:52:22.508Z,13.96
2022-10-18T00:52:58.447Z,13.94
2022-10-18T00:53:30.068Z,13.93
2022-10-18T00:54:02.060Z,13.93
2022-10-18T00:54:36.186Z,13.95
2022-10-18T00:55:08.857Z,13.91
2022-10-18T00:55:40.543Z,13.90
2022-10-18T00:56:13.497Z,13.89
2022-10-18T00:56:45.549Z,13.89
2022-10-18T00:57:17.587Z,13.91
2022-10-18T00:57:49.711Z,13.91
2022-10-18T00:58:21.314Z,13.89
2022-10-18T00:58:52.958Z,13.90
2022-10-18T00:59:25.056Z,13.88
2022-10-18T00:59:56.886Z,13.92
2022-10-18T01:00:28.420Z,13.96
2022-10-18T01:00:59.920Z,13.93
2022-10-18T01:01:31.468Z,13.93
2022-10-18T01:02:03.588Z,13.94
2022-10-18T01:02:36.704Z,13.92
2022-10-18T01:03:08.983Z,13.92
2022-10-18T01:03:41.560Z,13.93
2022-10-18T01:04:14.808Z,13.96
2022-10-18T01:04:46.831Z,13.95
2022-10-18T01:05:19.414Z,13.95
2022-10-18T01:05:50.902Z,13.93
2022-10-18T01:06:22.450Z,13.94
2022-10-18T01:07:37.098Z,13.97
2022-10-18T01:08:35.030Z,13.98
2022-10-18T01:09:13.953Z,13.99
2022-10-18T01:10:23.827Z,13.99
2022-10-18T01:11:10.356Z,13.99
2022-10-18T01:12:06.477Z,14.00
2022-10-18T01:12:38.043Z,13.97
2022-10-18T01:13:25.810Z,13.97
2022-10-18T01:18:16.390Z,13.97
2022-10-18T01:19:20.353Z,13.93
2022-10-18T01:20:10.363Z,13.94
2022-10-18T01:21:10.942Z,13.96
2022-10-18T01:25:44.670Z,13.96
2022-10-18T01:26:49.268Z,13.97
2022-10-18T01:27:46.941Z,13.98
2022-10-18T01:28:35.923Z,13.98
2022-10-18T01:29:51.012Z,13.97
2022-10-18T01:30:47.179Z,13.95
2022-10-18T01:31:22.336Z,13.91
2022-10-18T01:31:59.500Z,13.91
2022-10-18T01:32:39.975Z,13.90
2022-10-18T01:33:23.054Z,13.88
2022-10-18T01:34:03.175Z,13.87
2022-10-18T01:34:36.595Z,13.85
2022-10-18T01:35:13.932Z,13.84
2022-10-18T01:40:56.337Z,13.71
2022-10-18T01:41:28.508Z,13.73
2022-10-18T01:42:01.973Z,13.71
2022-10-18T01:42:33.929Z,13.69
2022-10-18T01:43:39.998Z,13.65
2022-10-18T01:44:14.816Z,13.61
2022-10-18T01:44:47.160Z,13.58
2022-10-18T01:45:19.215Z,13.58
2022-10-18T01:45:51.546Z,13.56
2022-10-18T01:46:25.094Z,13.55
2022-10-18T01:46:57.412Z,13.56
2022-10-18T01:47:29.461Z,13.54
2022-10-18T01:48:02.185Z,13.52
2022-10-18T01:48:38.023Z,13.51
2022-10-18T01:49:09.531Z,13.49
2022-10-18T01:49:41.152Z,13.49
2022-10-18T01:50:13.784Z,13.47
2022-10-18T01:50:45.394Z,13.46
2022-10-18T01:51:20.136Z,13.45
2022-10-18T01:51:51.768Z,13.43
2022-10-18T01:52:23.365Z,13.42
2022-10-18T01:52:55.044Z,13.42
2022-10-18T01:53:32.094Z,13.41
2022-10-18T01:54:03.740Z,13.39
2022-10-18T01:54:37.646Z,13.38
2022-10-18T01:55:09.502Z,13.34
2022-10-18T01:55:44.999Z,13.34
2022-10-18T01:56:18.218Z,13.30
2022-10-18T01:57:03.814Z,13.27
2022-10-18T01:57:45.394Z,13.24
2022-10-18T01:58:32.844Z,13.24
2022-10-18T01:59:45.788Z,13.24
2022-10-18T02:00:24.495Z,13.21
2022-10-18T02:01:04.681Z,13.21
2022-10-18T02:01:54.515Z,13.21
2022-10-18T02:02:32.871Z,13.21
2022-10-18T02:10:22.626Z,13.09
2022-10-18T02:11:01.297Z,13.07
2022-10-18T02:11:33.999Z,13.07
2022-10-18T02:12:08.244Z,13.06
2022-10-18T02:12:42.352Z,13.05
2022-10-18T02:13:16.443Z,13.05
2022-10-18T02:13:50.935Z,13.05
2022-10-18T02:14:23.687Z,13.05
2022-10-18T02:14:55.998Z,13.04
2022-10-18T02:15:33.237Z,13.05
2022-10-18T02:16:08.323Z,13.06
2022-10-18T02:16:49.825Z,13.07
2022-10-18T02:17:21.645Z,13.08
2022-10-18T02:17:53.804Z,13.09
2022-10-18T02:18:29.503Z,13.09
2022-10-18T02:19:06.388Z,13.08
2022-10-18T02:23:01.736Z,13.05
2022-10-18T02:23:34.206Z,12.98
2022-10-18T02:24:06.994Z,12.91
2022-10-18T02:24:42.439Z,12.88
2022-10-18T02:25:18.445Z,12.87
2022-10-18T02:25:50.503Z,12.86
2022-10-18T02:26:22.085Z,12.84
2022-10-18T02:26:53.639Z,12.82
2022-10-18T02:27:25.539Z,12.84
2022-10-18T02:27:57.263Z,12.85
2022-10-18T02:28:28.838Z,12.84
2022-10-18T02:29:00.506Z,12.84
2022-10-18T02:29:32.256Z,12.86
2022-10-18T02:30:04.828Z,12.85
2022-10-18T02:30:42.260Z,12.85
2022-10-18T02:31:21.844Z,12.86
2022-10-18T02:32:03.581Z,12.86
2022-10-18T02:32:38.159Z,12.86
2022-10-18T02:33:14.876Z,12.85
2022-10-18T02:34:02.899Z,12.86
2022-10-18T02:34:39.919Z,12.88
2022-10-18T02:35:25.299Z,12.87
2022-10-18T02:36:02.069Z,12.85
2022-10-18T02:36:38.345Z,12.86
2022-10-18T02:37:11.251Z,12.85
2022-10-18T02:37:43.364Z,12.84
2022-10-18T02:38:15.569Z,12.83
2022-10-18T02:38:48.488Z,12.83
2022-10-18T02:39:25.732Z,12.81
2022-10-18T02:39:57.553Z,12.80
2022-10-18T02:40:29.658Z,12.80
2022-10-18T02:41:01.643Z,12.80
2022-10-18T02:41:33.791Z,12.81
2022-10-18T02:42:08.876Z,12.80
2022-10-18T02:42:49.399Z,12.80
2022-10-18T02:43:24.369Z,12.80
2022-10-18T02:43:55.896Z,12.81
2022-10-18T02:44:27.554Z,12.79
2022-10-18T02:44:59.047Z,12.77
2022-10-18T02:45:30.628Z,12.73
2022-10-18T02:46:02.565Z,12.72
2022-10-18T02:46:34.834Z,12.67
2022-10-18T02:47:08.369Z,12.62
2022-10-18T02:47:39.927Z,12.62
2022-10-18T02:48:11.592Z,12.61
2022-10-18T02:48:43.128Z,12.62
2022-10-18T02:49:14.647Z,12.62
2022-10-18T02:49:46.198Z,12.62
2022-10-18T02:50:18.119Z,12.62
2022-10-18T02:50:49.629Z,12.61
2022-10-18T02:51:21.208Z,12.61
2022-10-18T02:51:52.692Z,12.62
2022-10-18T02:52:24.365Z,12.61
2022-10-18T02:52:55.963Z,12.61
2022-10-18T02:53:27.466Z,12.61
2022-10-18T02:53:59.044Z,12.60
2022-10-18T02:54:30.557Z,12.57
2022-10-18T02:55:02.131Z,12.57
2022-10-18T02:55:33.632Z,12.59
2022-10-18T02:56:05.418Z,12.58
2022-10-18T02:56:36.939Z,12.58
2022-10-18T02:57:08.709Z,12.55
2022-10-18T02:57:40.344Z,12.54
2022-10-18T02:58:11.896Z,12.51
2022-10-18T02:58:43.454Z,12.53
2022-10-18T02:59:15.065Z,12.55
2022-10-18T02:59:46.573Z,12.52
2022-10-18T03:00:18.166Z,12.53
2022-10-18T03:00:50.903Z,12.53
2022-10-18T03:01:22.528Z,12.52
2022-10-18T03:01:54.169Z,12.50
2022-10-18T03:02:25.859Z,12.51
2022-10-18T03:02:57.494Z,12.51
2022-10-18T03:03:28.990Z,12.52
2022-10-18T03:04:00.624Z,12.51
2022-10-18T03:04:32.110Z,12.50
2022-10-18T03:05:04.019Z,12.50
2022-10-18T03:05:35.757Z,12.47
2022-10-18T03:06:07.324Z,12.48
2022-10-18T03:06:38.865Z,12.49
2022-10-18T03:07:10.419Z,12.49
2022-10-18T03:07:41.915Z,12.51
2022-10-18T03:08:13.481Z,12.50
2022-10-18T03:08:45.375Z,12.51
2022-10-18T03:09:17.153Z,12.50
2022-10-18T03:09:48.671Z,12.52
2022-10-18T03:10:20.204Z,12.54
2022-10-18T03:10:51.898Z,12.50
2022-10-18T03:11:23.533Z,12.47
2022-10-18T03:11:55.005Z,12.45
2022-10-18T03:12:26.501Z,12.45
2022-10-18T03:12:57.972Z,12.44
2022-10-18T03:14:01.044Z,12.43
2022-10-18T03:14:32.644Z,12.42
2022-10-18T03:15:04.550Z,12.41
2022-10-18T03:15:36.315Z,12.42
2022-10-18T03:16:07.956Z,12.40
2022-10-18T03:16:39.506Z,12.41
2022-10-18T03:17:11.167Z,12.43
2022-10-18T03:17:42.661Z,12.42
2022-10-18T03:18:14.927Z,12.40
2022-10-18T03:18:46.480Z,12.42
2022-10-18T03:19:18.127Z,12.43
2022-10-18T03:19:49.713Z,12.45
2022-10-18T03:20:21.215Z,12.39
2022-10-18T03:20:52.774Z,12.37
2022-10-18T03:21:24.362Z,12.40
2022-10-18T03:21:55.931Z,12.41
2022-10-18T03:23:00.524Z,12.40
2022-10-18T03:23:32.022Z,12.43
2022-10-18T03:24:03.979Z,12.45
2022-10-18T03:24:35.472Z,12.41
2022-10-18T03:25:07.311Z,12.42
2022-10-18T03:25:40.587Z,12.38
2022-10-18T03:28:44.194Z,12.46
2022-10-18T03:29:15.786Z,12.45
2022-10-18T03:29:47.295Z,12.42
2022-10-18T03:30:19.214Z,12.37
2022-10-18T03:30:50.710Z,12.35
2022-10-18T03:31:22.244Z,12.36
2022-10-18T03:31:53.805Z,12.36
2022-10-18T03:32:25.399Z,12.35
2022-10-18T03:32:57.043Z,12.34
2022-10-18T03:33:29.237Z,12.36
2022-10-18T03:34:00.736Z,12.37
2022-10-18T03:34:32.295Z,12.37
2022-10-18T03:35:05.300Z,12.39
2022-10-18T03:35:36.793Z,12.39
2022-10-18T03:36:08.408Z,12.38
2022-10-18T03:36:41.419Z,12.37
2022-10-18T03:37:12.904Z,12.40
2022-10-18T03:37:44.412Z,12.39
2022-10-18T03:38:15.991Z,12.38
2022-10-18T03:38:47.763Z,12.40
2022-10-18T03:39:19.465Z,12.38
2022-10-18T03:39:51.023Z,12.31
2022-10-18T03:40:22.583Z,12.28
2022-10-18T03:40:54.094Z,12.28
2022-10-18T03:41:25.787Z,12.29
2022-10-18T03:41:57.388Z,12.29
2022-10-18T03:42:29.085Z,12.31
2022-10-18T03:43:00.688Z,12.31
2022-10-18T03:43:32.169Z,12.30
2022-10-18T03:44:04.108Z,12.30
2022-10-18T03:44:35.583Z,12.30
2022-10-18T03:45:07.674Z,12.29
2022-10-18T03:45:40.025Z,12.31
2022-10-18T03:46:11.627Z,12.33
2022-10-18T03:46:43.223Z,12.33
2022-10-18T03:47:14.721Z,12.33
2022-10-18T03:47:46.445Z,12.33
2022-10-18T03:48:18.159Z,12.32
2022-10-18T03:48:49.648Z,12.34
2022-10-18T03:49:21.243Z,12.34
2022-10-18T03:49:54.680Z,12.31
2022-10-18T03:50:28.615Z,12.33
2022-10-18T03:51:00.197Z,12.32
2022-10-18T03:51:31.830Z,12.30
2022-10-18T03:52:03.563Z,12.29
2022-10-18T03:52:35.185Z,12.27
2022-10-18T03:53:06.704Z,12.26
2022-10-18T03:53:38.263Z,12.23
2022-10-18T03:54:09.741Z,12.22
2022-10-18T03:54:41.431Z,12.21
2022-10-18T03:55:13.013Z,12.20
2022-10-18T03:55:44.737Z,12.20
2022-10-18T03:56:16.368Z,12.19
2022-10-18T03:56:48.124Z,12.17
2022-10-18T03:57:19.762Z,12.16
2022-10-18T03:57:51.252Z,12.15
2022-10-18T03:58:23.407Z,12.16
2022-10-18T03:58:55.085Z,12.16
2022-10-18T03:59:26.717Z,12.18
2022-10-18T03:59:58.327Z,12.21
2022-10-18T04:00:30.027Z,12.21
2022-10-18T04:01:01.541Z,12.22
2022-10-18T04:01:33.068Z,12.22
2022-10-18T04:02:04.843Z,12.23
2022-10-18T04:02:36.417Z,12.24
2022-10-18T04:03:08.005Z,12.26
2022-10-18T04:03:39.507Z,12.26
2022-10-18T04:04:11.195Z,12.27
2022-10-18T04:04:42.749Z,12.31
2022-10-18T04:05:14.406Z,12.31
2022-10-18T04:05:47.133Z,12.30
2022-10-18T04:06:18.672Z,12.34
2022-10-18T04:06:50.175Z,12.33
2022-10-18T04:07:21.682Z,12.33
2022-10-18T04:07:53.202Z,12.32
2022-10-18T04:08:24.907Z,12.34
2022-10-18T04:08:56.502Z,12.33
2022-10-18T04:09:28.067Z,12.35
2022-10-18T04:09:59.762Z,12.35
2022-10-18T04:10:31.297Z,12.34
2022-10-18T04:11:09.879Z,12.34
2022-10-18T04:11:41.451Z,12.36
2022-10-18T04:12:12.927Z,12.36
2022-10-18T04:12:44.451Z,12.37
2022-10-18T04:13:16.019Z,12.38
2022-10-18T04:13:47.613Z,12.39
2022-10-18T04:14:21.361Z,12.39
2022-10-18T04:14:55.351Z,12.40
2022-10-18T04:15:27.129Z,12.41
2022-10-18T04:15:58.674Z,12.41
2022-10-18T04:16:30.196Z,12.43
2022-10-18T04:17:01.962Z,12.42
2022-10-18T04:17:33.729Z,12.42
2022-10-18T04:18:05.634Z,12.43
2022-10-18T04:18:37.314Z,12.42
2022-10-18T04:19:08.814Z,12.42
2022-10-18T04:19:41.087Z,12.40
2022-10-18T04:20:12.764Z,12.42
2022-10-18T04:20:44.238Z,12.42
2022-10-18T04:21:15.891Z,12.43
2022-10-18T04:21:47.479Z,12.44
2022-10-18T04:22:19.056Z,12.43
2022-10-18T04:22:51.238Z,12.42
2022-10-18T04:23:22.749Z,12.44
2022-10-18T04:23:54.284Z,12.45
2022-10-18T04:24:25.760Z,12.44
2022-10-18T04:24:57.336Z,12.43
2022-10-18T04:25:29.442Z,12.44
2022-10-18T04:26:01.032Z,12.44
2022-10-18T04:26:32.560Z,12.43
2022-10-18T04:27:07.573Z,12.41
2022-10-18T04:27:39.108Z,12.40
2022-10-18T04:28:10.660Z,12.41
2022-10-18T04:28:43.050Z,12.40
2022-10-18T04:29:14.683Z,12.40
2022-10-18T04:29:46.225Z,12.36
2022-10-18T04:30:17.951Z,12.35
2022-10-18T04:30:53.512Z,12.37
2022-10-18T04:31:25.145Z,12.37
2022-10-18T04:31:56.718Z,12.37
2022-10-18T04:32:29.434Z,12.36
2022-10-18T04:33:01.153Z,12.38
2022-10-18T04:33:32.622Z,12.39
2022-10-18T04:34:04.636Z,12.39
2022-10-18T04:34:36.212Z,12.41
2022-10-18T04:35:08.067Z,12.41
2022-10-18T04:35:39.555Z,12.41
2022-10-18T04:36:11.140Z,12.40
2022-10-18T04:36:42.640Z,12.40
2022-10-18T04:37:14.277Z,12.43
2022-10-18T04:37:45.999Z,12.46
2022-10-18T04:38:17.529Z,12.44
2022-10-18T04:38:49.001Z,12.46
2022-10-18T04:39:20.560Z,12.44
2022-10-18T04:39:53.665Z,12.43
2022-10-18T04:40:25.695Z,12.43
2022-10-18T04:40:57.324Z,12.42
2022-10-18T04:41:28.904Z,12.42
2022-10-18T04:42:00.439Z,12.43
2022-10-18T04:42:31.928Z,12.43
2022-10-18T04:43:03.444Z,12.44
2022-10-18T04:43:35.327Z,12.42
2022-10-18T04:44:07.972Z,12.41
2022-10-18T04:44:39.496Z,12.42
2022-10-18T04:45:11.208Z,12.43
2022-10-18T04:45:48.167Z,12.41
2022-10-18T04:46:19.715Z,12.38
2022-10-18T04:46:51.305Z,12.40
2022-10-18T04:47:22.866Z,12.39
2022-10-18T04:47:54.378Z,12.40
2022-10-18T04:48:26.086Z,12.40
2022-10-18T04:48:57.753Z,12.41
2022-10-18T04:49:29.266Z,12.40
2022-10-18T04:50:00.734Z,12.41
2022-10-18T04:50:32.311Z,12.39
2022-10-18T04:51:03.884Z,12.38
2022-10-18T04:51:35.395Z,12.36
2022-10-18T04:52:07.296Z,12.34
2022-10-18T04:52:38.916Z,12.34
2022-10-18T04:53:10.465Z,12.33
2022-10-18T04:53:42.036Z,12.33
2022-10-18T04:54:13.617Z,12.32
2022-10-18T04:54:45.162Z,12.30
2022-10-18T04:55:16.692Z,12.29
2022-10-18T04:55:49.483Z,12.30
2022-10-18T04:56:21.188Z,12.31
2022-10-18T04:56:52.758Z,12.30
2022-10-18T04:57:24.380Z,12.32
2022-10-18T04:57:55.981Z,12.32
2022-10-18T04:58:27.544Z,12.32
2022-10-18T04:58:59.660Z,12.32
2022-10-18T04:59:31.186Z,12.31
2022-10-18T05:00:03.155Z,12.29
2022-10-18T05:00:39.202Z,12.29
2022-10-18T05:01:11.899Z,12.29
2022-10-18T05:01:43.573Z,12.30
2022-10-18T05:02:15.141Z,12.29
2022-10-18T05:02:46.632Z,12.28
2022-10-18T05:03:18.342Z,12.29
2022-10-18T05:03:56.023Z,12.30
2022-10-18T05:04:27.600Z,12.29
2022-10-18T05:04:59.136Z,12.31
2022-10-18T05:05:49.653Z,12.31
2022-10-18T05:06:22.299Z,12.31
2022-10-18T05:06:53.927Z,12.33
2022-10-18T05:07:25.790Z,12.35
2022-10-18T05:07:57.369Z,12.35
2022-10-18T05:08:29.769Z,12.37
2022-10-18T05:09:01.563Z,12.36
2022-10-18T05:09:33.703Z,12.35
2022-10-18T05:10:05.508Z,12.37
2022-10-18T05:10:36.975Z,12.38
2022-10-18T05:11:39.917Z,12.41
2022-10-18T05:12:11.436Z,12.42
2022-10-18T05:12:43.889Z,12.43
2022-10-18T05:13:15.731Z,12.44
2022-10-18T05:13:50.094Z,12.44
2022-10-18T05:14:22.513Z,12.45
2022-10-18T05:14:56.246Z,12.45
2022-10-18T05:15:27.925Z,12.45
2022-10-18T05:16:00.281Z,12.46
2022-10-18T05:16:32.479Z,12.45
2022-10-18T05:17:03.954Z,12.45
2022-10-18T05:17:35.677Z,12.43
2022-10-18T05:18:07.203Z,12.43
2022-10-18T05:18:38.753Z,12.44
2022-10-18T05:19:10.726Z,12.42
2022-10-18T05:19:42.456Z,12.41
2022-10-18T05:20:47.079Z,12.40
2022-10-18T05:21:18.551Z,12.41
2022-10-18T05:21:51.164Z,12.41
2022-10-18T05:22:22.872Z,12.42
2022-10-18T05:22:54.365Z,12.43
2022-10-18T05:23:26.001Z,12.45
2022-10-18T05:23:57.576Z,12.44
2022-10-18T05:24:29.056Z,12.44
2022-10-18T05:25:00.558Z,12.43
2022-10-18T05:25:32.219Z,12.41
2022-10-18T05:26:05.310Z,12.40
2022-10-18T05:26:36.857Z,12.39
2022-10-18T05:27:10.269Z,12.36
2022-10-18T05:27:41.928Z,12.36
2022-10-18T05:28:38.126Z,12.37
2022-10-18T05:29:05.184Z,12.36
2022-10-18T05:29:36.738Z,12.37
2022-10-18T05:30:08.545Z,12.38
2022-10-18T05:30:40.526Z,12.37
2022-10-18T05:31:12.124Z,12.37
2022-10-18T05:31:43.669Z,12.36
2022-10-18T05:32:15.200Z,12.36
2022-10-18T05:32:46.678Z,12.38
2022-10-18T05:33:18.244Z,12.36
2022-10-18T05:33:49.803Z,12.33
2022-10-18T05:34:22.018Z,12.33
2022-10-18T05:34:53.618Z,12.34
2022-10-18T05:35:25.368Z,12.33
2022-10-18T05:35:57.000Z,12.33
2022-10-18T05:36:28.682Z,12.33
2022-10-18T05:37:00.597Z,12.45
2022-10-18T05:37:32.173Z,12.39
2022-10-18T05:38:05.893Z,12.36
2022-10-18T05:38:45.462Z,12.36
2022-10-18T05:39:17.057Z,12.36
2022-10-18T05:39:48.601Z,12.35
2022-10-18T05:40:20.116Z,12.34
2022-10-18T05:40:52.066Z,12.32
2022-10-18T05:41:23.562Z,12.32
2022-10-18T05:41:55.062Z,12.31
2022-10-18T05:42:26.605Z,12.30
2022-10-18T05:42:58.109Z,12.29
2022-10-18T05:43:30.103Z,12.29
2022-10-18T05:44:05.518Z,12.30
2022-10-18T05:44:37.073Z,12.31
2022-10-18T05:45:08.977Z,12.32
2022-10-18T05:45:40.473Z,12.34
2022-10-18T05:46:15.536Z,12.35
2022-10-18T05:46:47.361Z,12.35
2022-10-18T05:47:18.848Z,12.35
2022-10-18T05:47:50.360Z,12.35
2022-10-18T05:48:21.852Z,12.35
2022-10-18T05:48:53.379Z,12.33
2022-10-18T05:49:24.873Z,12.32
2022-10-18T05:49:56.460Z,12.34
2022-10-18T05:50:28.155Z,12.33
2022-10-18T05:51:00.591Z,12.32
2022-10-18T05:51:32.227Z,12.32
2022-10-18T05:52:03.975Z,12.32
2022-10-18T05:52:35.611Z,12.33
2022-10-18T05:53:12.798Z,12.35
2022-10-18T05:53:58.878Z,12.37
2022-10-18T05:54:30.632Z,12.36
2022-10-18T05:55:02.191Z,12.37
2022-10-18T05:55:33.789Z,12.35
2022-10-18T05:56:06.464Z,12.36
2022-10-18T05:57:10.883Z,12.34
2022-10-18T05:57:42.424Z,12.34
2022-10-18T05:58:15.045Z,12.34
2022-10-18T05:58:50.592Z,12.32
2022-10-18T05:59:22.192Z,12.33
2022-10-18T05:59:53.883Z,12.33
2022-10-18T06:00:25.468Z,12.34
2022-10-18T06:01:04.588Z,12.35
2022-10-18T06:01:36.845Z,12.34
2022-10-18T06:02:10.698Z,12.34
2022-10-18T06:02:42.492Z,12.34
2022-10-18T06:03:14.115Z,12.34
2022-10-18T06:03:45.693Z,12.32
2022-10-18T06:04:17.993Z,12.33
2022-10-18T06:04:49.568Z,12.32
2022-10-18T06:05:21.056Z,12.32
2022-10-18T06:05:52.557Z,12.34
2022-10-18T06:06:24.301Z,12.33
2022-10-18T06:06:56.346Z,12.35
2022-10-18T06:07:27.832Z,12.35
2022-10-18T06:07:59.517Z,12.36
2022-10-18T06:08:31.430Z,12.38
2022-10-18T06:09:03.829Z,12.37
2022-10-18T06:09:35.463Z,12.39
2022-10-18T06:10:07.464Z,12.40
2022-10-18T06:10:40.352Z,12.40
2022-10-18T06:11:16.114Z,12.39
2022-10-18T06:11:47.872Z,12.38
2022-10-18T06:12:19.391Z,12.36
2022-10-18T06:12:50.980Z,12.34
2022-10-18T06:13:22.629Z,12.33
2022-10-18T06:13:54.197Z,12.31
2022-10-18T06:14:25.742Z,12.32
2022-10-18T06:14:57.235Z,12.31
2022-10-18T06:15:28.858Z,12.31
2022-10-18T06:16:00.387Z,12.32
2022-10-18T06:16:32.786Z,12.32
2022-10-18T06:17:04.575Z,12.34
2022-10-18T06:17:36.157Z,12.34
2022-10-18T06:18:07.777Z,12.33
2022-10-18T06:18:39.864Z,12.36
2022-10-18T06:19:11.430Z,12.34
2022-10-18T06:19:44.454Z,12.41
2022-10-18T06:20:16.144Z,12.44
2022-10-18T06:20:47.846Z,12.40
2022-10-18T06:21:20.144Z,12.37
2022-10-18T06:21:51.935Z,12.33
2022-10-18T06:22:23.490Z,12.31
2022-10-18T06:22:54.976Z,12.32
2022-10-18T06:23:29.342Z,12.31
2022-10-18T06:24:01.031Z,12.29
2022-10-18T06:24:32.582Z,12.31
2022-10-18T06:25:04.307Z,12.31
2022-10-18T06:25:35.800Z,12.32
2022-10-18T06:26:08.722Z,12.32
2022-10-18T06:26:40.233Z,12.33
2022-10-18T06:27:11.766Z,12.33
2022-10-18T06:27:43.261Z,12.33
2022-10-18T06:28:14.887Z,12.32
2022-10-18T06:28:46.834Z,12.33
2022-10-18T06:29:18.409Z,12.34
2022-10-18T06:29:49.923Z,12.35
2022-10-18T06:30:21.427Z,12.36
2022-10-18T06:30:53.003Z,12.35
2022-10-18T06:31:24.507Z,12.34
2022-10-18T06:31:56.258Z,12.32
2022-10-18T06:32:27.823Z,12.32
2022-10-18T06:33:00.938Z,12.31
2022-10-18T06:33:34.027Z,12.32
2022-10-18T06:34:05.596Z,12.31
2022-10-18T06:34:37.086Z,12.32
2022-10-18T06:35:09.231Z,12.32
2022-10-18T06:35:40.715Z,12.35
2022-10-18T06:36:17.616Z,12.36
2022-10-18T06:36:49.226Z,12.37
2022-10-18T06:37:20.927Z,12.38
2022-10-18T06:37:52.460Z,12.36
2022-10-18T06:38:24.405Z,12.36
2022-10-18T06:38:56.766Z,12.35
2022-10-18T06:39:28.569Z,12.32
2022-10-18T06:40:00.088Z,12.33
2022-10-18T06:40:37.724Z,12.34
2022-10-18T06:41:09.391Z,12.33
2022-10-18T06:41:40.886Z,12.34
2022-10-18T06:42:23.736Z,12.35
2022-10-18T06:43:00.498Z,12.36
2022-10-18T06:43:42.332Z,12.37
2022-10-18T06:44:14.724Z,12.36
2022-10-18T06:44:46.238Z,12.36
2022-10-18T06:45:18.417Z,12.37
2022-10-18T06:45:50.414Z,12.39
2022-10-18T06:46:21.904Z,12.37
2022-10-18T06:46:53.559Z,12.35
2022-10-18T06:47:24.994Z,12.28
2022-10-18T06:47:58.516Z,12.32
2022-10-18T06:48:30.939Z,12.31
2022-10-18T06:49:02.503Z,12.32
2022-10-18T06:49:33.998Z,12.32
2022-10-18T06:50:05.967Z,12.31
2022-10-18T06:50:37.609Z,12.29
2022-10-18T06:51:10.299Z,12.31
2022-10-18T06:51:42.817Z,12.32
2022-10-18T06:52:17.451Z,12.33
2022-10-18T06:52:54.707Z,12.31
2022-10-18T06:53:28.027Z,12.32
2022-10-18T06:54:17.020Z,12.34
2022-10-18T06:54:49.275Z,12.28
2022-10-18T06:55:20.953Z,12.27
2022-10-18T06:55:52.731Z,12.28
2022-10-18T06:56:24.202Z,12.40
2022-10-18T06:56:57.385Z,12.27
2022-10-18T06:57:28.880Z,12.29
2022-10-18T06:58:00.447Z,12.28
2022-10-18T06:58:32.621Z,12.24
2022-10-18T06:59:04.706Z,12.21
2022-10-18T06:59:36.242Z,12.20
2022-10-18T07:00:08.484Z,12.23
2022-10-18T07:00:40.752Z,12.21
2022-10-18T07:01:15.900Z,12.18
2022-10-18T07:01:47.463Z,12.18
2022-10-18T07:02:19.035Z,12.18
2022-10-18T07:02:50.661Z,12.18
2022-10-18T07:03:22.377Z,12.21
2022-10-18T07:03:55.168Z,12.18
2022-10-18T07:04:30.438Z,12.29
2022-10-18T07:05:01.939Z,12.24
2022-10-18T07:06:06.881Z,12.24
2022-10-18T07:06:38.480Z,12.19
2022-10-18T07:07:10.124Z,12.18
2022-10-18T07:07:41.664Z,12.17
2022-10-18T07:08:13.331Z,12.19
2022-10-18T07:08:46.739Z,12.21
2022-10-18T07:09:18.390Z,12.24
2022-10-18T07:09:49.900Z,12.20
2022-10-18T07:10:21.515Z,12.15
2022-10-18T07:10:53.376Z,12.19
2022-10-18T07:11:26.691Z,12.15
2022-10-18T07:11:58.228Z,12.13
2022-10-18T07:12:31.019Z,12.15
2022-10-18T07:13:27.251Z,12.12
2022-10-18T07:14:00.821Z,12.18
2022-10-18T07:14:32.382Z,12.13
2022-10-18T07:15:08.938Z,12.15
2022-10-18T07:15:40.971Z,12.14
2022-10-18T07:16:18.478Z,12.15
2022-10-18T07:16:50.678Z,12.20
2022-10-18T07:21:43.658Z,12.21
2022-10-18T07:22:15.265Z,12.20
2022-10-18T07:22:46.758Z,12.24
2022-10-18T07:23:18.594Z,12.27
2022-10-18T07:23:51.282Z,12.31
2022-10-18T07:24:22.901Z,12.37
2022-10-18T07:24:54.496Z,12.44
2022-10-18T07:25:28.473Z,12.57
2022-10-18T07:26:03.572Z,12.56
2022-10-18T07:26:35.573Z,12.57
2022-10-18T07:27:07.208Z,12.62
2022-10-18T07:27:40.737Z,12.63
2022-10-18T07:28:12.489Z,12.67
2022-10-18T07:28:46.081Z,12.66
2022-10-18T07:29:17.644Z,12.61
2022-10-18T07:29:49.702Z,12.58
2022-10-18T07:30:21.347Z,12.56
2022-10-18T07:30:52.955Z,12.57
2022-10-18T07:31:25.304Z,12.56
2022-10-18T07:31:56.861Z,12.52
2022-10-18T07:32:28.382Z,12.54
2022-10-18T07:32:59.924Z,12.57
2022-10-18T07:33:31.472Z,12.62
2022-10-18T07:34:07.068Z,12.66
2022-10-18T07:34:38.540Z,12.71
2022-10-18T07:35:41.599Z,12.64
2022-10-18T07:36:13.654Z,12.61
2022-10-18T07:36:45.390Z,12.56
2022-10-18T07:37:16.936Z,12.59
2022-10-18T07:37:48.430Z,12.61
2022-10-18T07:38:20.117Z,12.61
2022-10-18T07:38:52.388Z,12.63
2022-10-18T07:39:23.913Z,12.68
2022-10-18T07:39:55.500Z,12.70
2022-10-18T07:40:27.028Z,12.66
2022-10-18T07:40:59.693Z,12.69
2022-10-18T07:41:33.670Z,12.75
2022-10-18T07:42:05.156Z,12.83
2022-10-18T07:42:36.718Z,12.89
2022-10-18T07:43:11.956Z,12.91
2022-10-18T07:43:46.070Z,12.97
2022-10-18T07:44:17.814Z,12.94
2022-10-18T07:44:49.358Z,12.90
2022-10-18T07:45:21.257Z,12.92
2022-10-18T07:46:00.836Z,12.90
2022-10-18T07:46:32.693Z,12.84
2022-10-18T07:47:04.209Z,12.83
2022-10-18T07:47:35.979Z,12.88
2022-10-18T07:48:07.943Z,12.89
2022-10-18T07:48:39.512Z,12.96
2022-10-18T07:49:11.161Z,13.01
2022-10-18T07:49:42.660Z,13.07
2022-10-18T07:50:14.278Z,13.06
2022-10-18T07:50:45.758Z,13.07
2022-10-18T07:51:19.298Z,13.05